createdAt,value
2022-10-18T00:01:27.045Z,16.35
2022-10-18T00:03:59.054Z,20.35
2022-10-18T00:06:30.655Z,17.52
2022-10-18T00:09:04.446Z,19.38
2022-10-18T00:11:38.894Z,18.05
2022-10-18T00:14:10.965Z,15.45
2022-10-18T00:16:42.634Z,16.75
2022-10-18T00:19:14.704Z,17.42
2022-10-18T00:21:46.577Z,22.73
2022-10-18T00:24:18.713Z,18.63
2022-10-18T00:26:55.937Z,18.50
2022-10-18T00:29:28.105Z,16.83
2022-10-18T00:31:59.726Z,15.68
2022-10-18T00:34:31.787Z,19.98
2022-10-18T00:37:03.385Z,17.90
2022-10-18T00:39:35.587Z,17.98
2022-10-18T00:42:10.144Z,19.20
2022-10-18T00:45:14.495Z,18.98
2022-10-18T00:47:49.055Z,18.13
2022-10-18T00:50:23.254Z,18.77
2022-10-18T00:52:58.577Z,17.02
2022-10-18T00:55:31.862Z,18.95
2022-10-18T00:58:08.363Z,20.05
2022-10-18T01:00:42.353Z,19.60
2022-10-18T01:03:14.372Z,23.02
2022-10-18T01:05:49.722Z,22.35
2022-10-18T01:08:47.206Z,22.95
2022-10-18T01:11:36.625Z,21.55
2022-10-18T01:14:22.835Z,21.80
2022-10-18T01:17:08.087Z,25.25
2022-10-18T01:20:14.875Z,20.13
2022-10-18T01:22:51.804Z,22.35
2022-10-18T01:25:43.473Z,19.48
2022-10-18T01:28:31.787Z,21.05
2022-10-18T01:31:10.336Z,25.90
2022-10-18T01:33:46.856Z,24.27
2022-10-18T01:36:24.413Z,22.33
2022-10-18T01:39:00.525Z,23.48
2022-10-18T01:41:32.775Z,25.25
2022-10-18T01:44:09.000Z,22.25
2022-10-18T01:46:45.033Z,23.70
2022-10-18T01:49:21.635Z,25.48
2022-10-18T01:51:54.124Z,27.27
2022-10-18T01:54:34.277Z,24.58
2022-10-18T01:57:14.170Z,27.48
2022-10-18T01:59:56.646Z,27.73
2022-10-18T02:02:49.995Z,31.02
2022-10-18T02:05:27.675Z,28.77
2022-10-18T02:08:12.558Z,28.35
2022-10-18T02:10:58.925Z,30.27
2022-10-18T02:13:40.425Z,25.35
2022-10-18T02:16:16.517Z,25.70
2022-10-18T02:18:56.569Z,27.92
2022-10-18T02:21:31.085Z,28.77
2022-10-18T02:24:05.652Z,23.77
2022-10-18T02:26:38.006Z,25.23
2022-10-18T02:29:10.623Z,26.83
2022-10-18T02:31:47.102Z,26.35
2022-10-18T02:34:25.655Z,26.40
2022-10-18T02:37:01.146Z,27.48
2022-10-18T02:39:36.415Z,24.80
2022-10-18T02:42:09.894Z,26.23
2022-10-18T02:44:42.234Z,23.83
2022-10-18T02:47:15.346Z,23.20
2022-10-18T02:49:49.626Z,23.77
2022-10-18T02:52:21.631Z,21.08
2022-10-18T02:54:53.333Z,24.13
2022-10-18T02:57:25.464Z,24.65
2022-10-18T02:59:57.156Z,24.23
2022-10-18T03:02:29.583Z,24.33
2022-10-18T03:05:03.914Z,27.63
2022-10-18T03:07:35.966Z,22.45
2022-10-18T03:10:08.369Z,22.98
2022-10-18T03:12:40.570Z,25.15
2022-10-18T03:15:13.182Z,25.05
2022-10-18T03:17:45.186Z,24.10
2022-10-18T03:20:20.014Z,25.27
2022-10-18T03:22:52.087Z,23.73
2022-10-18T03:25:23.765Z,25.63
2022-10-18T03:27:55.753Z,30.23
2022-10-18T03:30:27.447Z,24.38
2022-10-18T03:32:59.565Z,25.90
2022-10-18T03:35:34.057Z,24.00
2022-10-18T03:38:06.085Z,24.33
2022-10-18T03:40:38.343Z,26.52
2022-10-18T03:43:10.263Z,25.45
2022-10-18T03:45:42.593Z,24.02
2022-10-18T03:48:14.617Z,23.30
2022-10-18T03:50:49.314Z,26.80
2022-10-18T03:53:21.496Z,26.13
2022-10-18T03:55:54.655Z,26.98
2022-10-18T03:58:27.449Z,24.15
2022-10-18T04:00:59.467Z,22.23
2022-10-18T04:03:31.518Z,27.33
2022-10-18T04:06:05.863Z,24.77
2022-10-18T04:08:37.938Z,21.13
2022-10-18T04:11:12.274Z,22.67
2022-10-18T04:13:44.275Z,26.80
2022-10-18T04:16:16.004Z,23.20
2022-10-18T04:18:48.125Z,22.90
2022-10-18T04:21:22.648Z,24.42
2022-10-18T04:23:58.682Z,22.05
2022-10-18T04:26:30.338Z,26.98
2022-10-18T04:29:02.469Z,27.05
2022-10-18T04:31:34.547Z,23.70
2022-10-18T04:34:07.343Z,24.98
2022-10-18T04:36:41.667Z,26.02
2022-10-18T04:39:13.785Z,27.77
2022-10-18T04:41:45.436Z,32.35
2022-10-18T04:44:21.243Z,31.00
2022-10-18T04:46:53.167Z,35.35
2022-10-18T04:49:25.150Z,34.45
2022-10-18T04:51:59.468Z,29.90
2022-10-18T04:54:31.505Z,33.75
2022-10-18T04:57:03.255Z,34.47
2022-10-18T04:59:35.335Z,32.70
2022-10-18T05:02:07.308Z,34.90
2022-10-18T05:04:40.184Z,30.17
2022-10-18T05:07:14.571Z,32.97
2022-10-18T05:09:46.803Z,30.08
2022-10-18T05:12:18.724Z,30.40
2022-10-18T05:14:50.933Z,30.15
2022-10-18T05:17:22.847Z,28.58
2022-10-18T05:19:55.043Z,30.40
2022-10-18T05:22:29.541Z,28.42
2022-10-18T05:25:01.861Z,33.65
2022-10-18T05:27:33.785Z,28.70
2022-10-18T05:30:07.175Z,32.22
2022-10-18T05:32:38.985Z,36.20
2022-10-18T05:35:11.825Z,32.38
2022-10-18T05:37:46.266Z,34.22
2022-10-18T05:40:18.665Z,37.10
2022-10-18T05:42:50.448Z,36.15
2022-10-18T05:45:22.812Z,32.05
2022-10-18T05:47:54.583Z,35.08
2022-10-18T05:50:26.834Z,38.30
2022-10-18T05:53:11.959Z,35.63
2022-10-18T05:55:50.668Z,37.58
2022-10-18T05:58:22.645Z,37.53
2022-10-18T06:00:54.904Z,37.95
2022-10-18T06:03:27.800Z,43.50
2022-10-18T06:06:03.409Z,44.42
2022-10-18T06:08:38.699Z,35.90
2022-10-18T06:11:11.311Z,34.85
2022-10-18T06:13:44.263Z,25.60
2022-10-18T06:16:18.034Z,28.65
2022-10-18T06:18:52.055Z,23.90
2022-10-18T06:21:24.937Z,30.45
2022-10-18T06:24:01.282Z,29.27
2022-10-18T06:26:35.254Z,30.42
2022-10-18T06:29:07.327Z,38.22
2022-10-18T06:31:39.714Z,33.03
2022-10-18T06:34:11.601Z,56.72
2022-10-18T06:36:43.795Z,54.17
2022-10-18T06:39:18.304Z,35.92
2022-10-18T06:41:50.496Z,36.42
2022-10-18T06:44:22.496Z,31.25
2022-10-18T06:46:55.041Z,27.02
2022-10-18T06:49:29.517Z,24.30
2022-10-18T06:52:03.155Z,29.45
2022-10-18T06:54:38.085Z,29.33
2022-10-18T06:57:10.678Z,33.05
2022-10-18T06:59:43.435Z,38.90
2022-10-18T07:02:19.927Z,40.05
2022-10-18T07:04:55.597Z,47.97
2022-10-18T07:07:28.236Z,47.58
2022-10-18T07:10:03.076Z,51.13
2022-10-18T07:12:36.441Z,48.05
2022-10-18T07:15:09.876Z,53.17
2022-10-18T07:17:42.557Z,46.75
2022-10-18T07:20:14.957Z,53.45
2022-10-18T07:22:47.691Z,59.92
2022-10-18T07:25:24.798Z,56.83
2022-10-18T07:27:59.916Z,65.40
2022-10-18T07:30:32.076Z,58.00
2022-10-18T07:33:04.677Z,60.38
2022-10-18T07:35:36.886Z,54.65
2022-10-18T07:38:09.557Z,56.65
2022-10-18T07:40:44.800Z,62.15
2022-10-18T07:43:17.517Z,46.25
2022-10-18T07:45:55.875Z,38.15
2022-10-18T07:48:28.639Z,51.97
2022-10-18T07:51:02.882Z,35.95
2022-10-18T07:53:35.797Z,35.42
2022-10-18T07:56:16.482Z,35.28
2022-10-18T07:58:51.522Z,27.63
2022-10-18T08:01:24.650Z,26.58
2022-10-18T08:03:57.393Z,30.60
2022-10-18T08:06:29.675Z,30.42
2022-10-18T08:09:02.314Z,34.60
2022-10-18T08:11:37.194Z,27.05
2022-10-18T08:14:09.962Z,29.27
2022-10-18T08:16:42.155Z,31.23
2022-10-18T08:19:15.172Z,29.02
2022-10-18T08:21:47.514Z,27.02
2022-10-18T08:24:30.363Z,25.58
2022-10-18T08:27:05.323Z,36.45
2022-10-18T08:29:37.924Z,31.73
2022-10-18T08:32:10.955Z,31.15
2022-10-18T08:34:43.596Z,39.63
2022-10-18T08:37:16.035Z,39.45
2022-10-18T08:39:48.878Z,34.45
2022-10-18T08:42:42.756Z,42.78
2022-10-18T08:45:30.151Z,45.47
2022-10-18T08:48:11.156Z,43.72
2022-10-18T08:50:44.756Z,38.67
2022-10-18T08:53:22.717Z,43.55
2022-10-18T08:56:01.279Z,46.55
2022-10-18T08:58:36.876Z,58.35
2022-10-18T09:01:23.195Z,45.83
2022-10-18T09:04:18.676Z,44.38
2022-10-18T09:07:02.394Z,47.58
2022-10-18T09:09:43.034Z,49.35
2022-10-18T09:12:34.517Z,55.90
2022-10-18T09:15:23.433Z,44.55
2022-10-18T09:18:11.811Z,38.65
2022-10-18T09:20:53.953Z,31.98
2022-10-18T09:23:44.555Z,26.52
2022-10-18T09:26:20.649Z,21.73
2022-10-18T09:29:07.503Z,25.13
2022-10-18T09:31:50.914Z,30.40
2022-10-18T09:34:32.356Z,34.65
2022-10-18T09:37:05.766Z,29.40
2022-10-18T09:39:42.400Z,30.13
2022-10-18T09:42:26.778Z,32.13
2022-10-18T09:45:03.962Z,29.02
2022-10-18T09:47:43.676Z,29.73
2022-10-18T09:50:25.756Z,27.98
2022-10-18T09:53:11.919Z,28.02
2022-10-18T09:55:53.233Z,27.65
2022-10-18T09:58:48.172Z,32.00
2022-10-18T10:01:27.918Z,31.70
2022-10-18T10:04:02.961Z,37.08
2022-10-18T10:06:39.038Z,30.92
2022-10-18T10:09:17.873Z,33.20
2022-10-18T10:11:52.809Z,32.47
2022-10-18T10:14:27.332Z,37.20
2022-10-18T10:17:03.637Z,42.92
2022-10-18T10:19:41.036Z,49.30
2022-10-18T10:22:15.675Z,38.78
2022-10-18T10:24:52.036Z,40.90
2022-10-18T10:27:27.998Z,41.85
2022-10-18T10:30:06.748Z,55.38
2022-10-18T10:32:50.518Z,49.03
2022-10-18T10:35:49.033Z,60.58
2022-10-18T10:38:29.885Z,66.28
2022-10-18T10:41:02.677Z,62.75
2022-10-18T10:43:39.259Z,67.15
2022-10-18T10:46:15.315Z,51.53
2022-10-18T10:49:04.455Z,56.88
2022-10-18T10:51:53.775Z,63.28
2022-10-18T10:54:39.238Z,50.35
2022-10-18T10:57:26.597Z,48.10
2022-10-18T11:00:01.493Z,44.10
2022-10-18T11:02:35.844Z,54.58
2022-10-18T11:05:25.247Z,45.67
2022-10-18T11:08:05.517Z,58.35
2022-10-18T11:10:46.481Z,50.72
2022-10-18T11:13:31.838Z,42.33
2022-10-18T11:16:31.117Z,47.50
2022-10-18T11:19:13.600Z,43.40
2022-10-18T11:21:46.718Z,41.17
2022-10-18T11:24:21.637Z,27.85
2022-10-18T11:27:00.645Z,39.78
2022-10-18T11:29:54.484Z,44.75
2022-10-18T11:32:34.652Z,47.47
2022-10-18T11:35:25.077Z,41.63
2022-10-18T11:38:16.294Z,44.15
2022-10-18T11:41:00.836Z,51.22
2022-10-18T11:44:01.086Z,37.58
2022-10-18T11:46:44.558Z,36.28
2022-10-18T11:49:41.516Z,42.63
2022-10-18T11:52:24.637Z,42.58
2022-10-18T11:55:15.714Z,30.35
2022-10-18T11:57:58.139Z,31.58
2022-10-18T12:00:47.356Z,32.33
2022-10-18T12:03:25.917Z,35.70
2022-10-18T12:06:01.885Z,34.17
2022-10-18T12:08:39.524Z,33.10
2022-10-18T12:11:18.209Z,33.08
2022-10-18T12:13:58.035Z,26.45
2022-10-18T12:17:06.782Z,34.90
2022-10-18T12:19:33.318Z,28.20
2022-10-18T12:22:17.956Z,31.10
2022-10-18T12:24:50.519Z,31.50
2022-10-18T12:27:35.556Z,45.58
2022-10-18T12:30:23.755Z,38.47
2022-10-18T12:33:23.245Z,33.95
2022-10-18T12:36:04.234Z,38.13
2022-10-18T12:38:40.916Z,32.75
2022-10-18T12:41:19.876Z,29.65
2022-10-18T12:43:58.078Z,26.48
2022-10-18T12:46:47.559Z,31.25
2022-10-18T12:49:25.757Z,29.75
2022-10-18T12:51:59.879Z,33.05
2022-10-18T12:54:34.516Z,27.70
2022-10-18T12:57:08.357Z,33.20
2022-10-18T12:59:44.676Z,29.73
2022-10-18T13:02:36.924Z,28.90
2022-10-18T13:05:42.026Z,25.05
2022-10-18T13:08:46.237Z,26.05
2022-10-18T13:11:36.598Z,29.90
2022-10-18T13:14:53.629Z,28.92
2022-10-18T13:17:48.359Z,28.60
2022-10-18T13:20:29.197Z,33.17
2022-10-18T13:26:16.919Z,28.45
2022-10-18T13:28:58.943Z,29.98
2022-10-18T13:31:39.146Z,28.80
2022-10-18T13:34:29.809Z,34.53
2022-10-18T13:37:03.929Z,24.88
2022-10-18T13:39:37.071Z,29.73
2022-10-18T13:42:31.579Z,27.20
2022-10-18T13:45:34.083Z,32.92
2022-10-18T13:48:35.959Z,27.52
2022-10-18T13:51:34.561Z,25.08
2022-10-18T13:54:19.952Z,25.95
2022-10-18T13:57:08.795Z,28.30
2022-10-18T14:00:19.293Z,29.45
2022-10-18T14:03:44.419Z,24.92
2022-10-18T14:06:22.831Z,22.65
2022-10-18T14:09:09.561Z,27.00
2022-10-18T14:11:54.347Z,27.90
2022-10-18T14:14:35.623Z,26.10
2022-10-18T14:17:18.044Z,23.48
2022-10-18T14:19:55.910Z,26.25
2022-10-18T14:22:37.508Z,23.98
2022-10-18T14:25:24.297Z,28.63
2022-10-18T14:28:11.421Z,25.67
2022-10-18T14:30:59.386Z,26.20
2022-10-18T14:33:36.112Z,24.10
2022-10-18T14:36:15.378Z,27.05
2022-10-18T14:38:56.960Z,25.65
2022-10-18T14:41:31.388Z,28.45
2022-10-18T14:44:21.898Z,27.95
2022-10-18T14:46:56.161Z,22.33
2022-10-18T14:49:28.545Z,23.33
2022-10-18T14:52:03.485Z,23.17
2022-10-18T14:54:41.416Z,23.23
2022-10-18T14:57:25.048Z,22.30
2022-10-18T14:59:59.845Z,25.58
2022-10-18T15:02:35.549Z,24.92
2022-10-18T15:05:13.726Z,28.10
2022-10-18T15:07:47.412Z,23.55
2022-10-18T15:10:25.249Z,22.83
2022-10-18T15:13:09.875Z,21.95
2022-10-18T15:15:43.583Z,23.38
2022-10-18T15:18:24.227Z,28.73
2022-10-18T15:21:12.612Z,27.98
2022-10-18T15:23:45.166Z,31.33
2022-10-18T15:26:26.964Z,31.85
2022-10-18T15:29:04.322Z,29.23
2022-10-18T15:31:46.384Z,32.88
2022-10-18T15:34:23.892Z,34.78
2022-10-18T15:36:58.164Z,30.23
2022-10-18T15:39:32.605Z,34.08
2022-10-18T15:42:07.744Z,33.05
2022-10-18T15:44:51.900Z,35.92
2022-10-18T15:47:27.663Z,32.97
2022-10-18T15:50:01.621Z,33.97
2022-10-18T15:52:40.186Z,30.60
2022-10-18T15:55:52.582Z,35.60
2022-10-18T15:58:29.822Z,35.55
2022-10-18T16:01:05.033Z,34.22
2022-10-18T16:03:39.751Z,35.05
2022-10-18T16:06:16.053Z,35.92
2022-10-18T16:08:52.008Z,39.65
2022-10-18T16:11:27.511Z,41.63
2022-10-18T16:14:02.356Z,36.75
2022-10-18T16:16:35.231Z,41.28
2022-10-18T16:19:07.596Z,42.50
2022-10-18T16:21:41.672Z,49.13
2022-10-18T16:24:14.032Z,42.97
2022-10-18T16:26:46.754Z,41.63
2022-10-18T16:29:26.473Z,48.58
2022-10-18T16:32:00.198Z,46.13
2022-10-18T16:34:32.592Z,47.05
2022-10-18T16:37:05.266Z,49.78
2022-10-18T16:39:37.482Z,44.40
2022-10-18T16:42:10.346Z,44.50
2022-10-18T16:44:45.706Z,45.20
2022-10-18T16:47:18.628Z,42.60
2022-10-18T16:49:50.786Z,42.67
2022-10-18T16:52:23.546Z,41.60
2022-10-18T16:54:55.705Z,40.63
2022-10-18T16:57:28.426Z,38.90
2022-10-18T17:00:03.189Z,41.72
2022-10-18T17:02:35.906Z,42.72
2022-10-18T17:05:08.828Z,41.83
2022-10-18T17:07:41.584Z,44.75
2022-10-18T17:10:16.108Z,44.85
2022-10-18T17:12:49.154Z,52.83
2022-10-18T17:15:24.104Z,49.80
2022-10-18T17:17:56.788Z,53.92
2022-10-18T17:20:30.106Z,61.42
2022-10-18T17:23:02.865Z,51.60
2022-10-18T17:25:42.186Z,55.08
2022-10-18T17:28:25.238Z,47.35
2022-10-18T17:31:00.230Z,50.08
2022-10-18T17:33:32.984Z,49.80
2022-10-18T17:36:05.471Z,54.72
2022-10-18T17:38:38.427Z,55.83
2022-10-18T17:41:11.802Z,55.90
2022-10-18T17:43:44.882Z,53.40
2022-10-18T17:46:19.950Z,58.80
2022-10-18T17:48:52.683Z,54.63
2022-10-18T17:51:24.914Z,56.33
2022-10-18T17:53:57.714Z,52.92
2022-10-18T17:56:33.626Z,57.60
2022-10-18T17:59:06.627Z,57.17
2022-10-18T18:01:41.786Z,57.35
2022-10-18T18:04:15.347Z,50.38
2022-10-18T18:06:49.272Z,57.55
2022-10-18T18:09:22.626Z,58.33
2022-10-18T18:11:55.587Z,53.95
2022-10-18T18:14:28.908Z,49.58
2022-10-18T18:17:04.506Z,51.30
2022-10-18T18:19:37.128Z,45.17
2022-10-18T18:22:09.388Z,45.38
2022-10-18T18:24:42.157Z,46.70
2022-10-18T18:27:14.306Z,42.40
2022-10-18T18:29:46.946Z,47.28
2022-10-18T18:32:21.748Z,45.15
2022-10-18T18:34:54.706Z,46.97
2022-10-18T18:37:26.906Z,36.35
2022-10-18T18:39:59.664Z,41.38
2022-10-18T18:42:32.092Z,42.00
2022-10-18T18:45:05.345Z,45.20
2022-10-18T18:47:40.064Z,39.00
2022-10-18T18:50:12.985Z,38.10
2022-10-18T18:52:45.233Z,40.38
2022-10-18T18:55:18.266Z,37.72
2022-10-18T18:57:50.505Z,34.97
2022-10-18T19:00:23.395Z,35.72
2022-10-18T19:02:58.145Z,31.08
2022-10-18T19:05:30.906Z,36.47
2022-10-18T19:08:03.106Z,26.70
2022-10-18T19:10:35.906Z,30.98
2022-10-18T19:13:08.106Z,31.63
2022-10-18T19:15:40.630Z,30.23
2022-10-18T19:18:15.775Z,28.52
2022-10-18T19:20:50.026Z,26.60
2022-10-18T19:23:22.360Z,30.52
2022-10-18T19:25:54.945Z,23.75
2022-10-18T19:28:27.103Z,27.67
2022-10-18T19:30:59.867Z,20.58
2022-10-18T19:33:47.896Z,25.95
2022-10-18T19:36:21.225Z,23.00
2022-10-18T19:38:53.306Z,23.98
2022-10-18T19:41:26.566Z,22.45
2022-10-18T19:43:59.264Z,22.38
2022-10-18T19:46:31.946Z,22.50
2022-10-18T19:49:06.787Z,22.02
2022-10-18T19:51:40.147Z,25.17
2022-10-18T19:54:14.069Z,21.50
2022-10-18T19:56:47.585Z,22.17
2022-10-18T19:59:21.466Z,29.58
2022-10-18T20:01:54.145Z,25.13
2022-10-18T20:04:34.392Z,20.05
2022-10-18T20:07:06.992Z,20.15
2022-10-18T20:09:40.026Z,16.33
2022-10-18T20:12:12.625Z,22.10
2022-10-18T20:14:44.994Z,16.55
2022-10-18T20:17:17.827Z,18.42
2022-10-18T20:19:54.027Z,18.25
2022-10-18T20:22:26.669Z,21.38
2022-10-18T20:24:59.064Z,24.20
2022-10-18T20:27:34.688Z,18.88
2022-10-18T20:30:10.511Z,19.95
2022-10-18T20:32:44.715Z,17.98
2022-10-18T20:35:19.867Z,20.98
2022-10-18T20:37:52.674Z,17.23
2022-10-18T20:40:24.985Z,21.38
2022-10-18T20:43:02.834Z,21.98
2022-10-18T20:45:36.186Z,21.20
2022-10-18T20:48:09.025Z,21.10
2022-10-18T20:50:46.786Z,22.60
2022-10-18T20:53:18.668Z,19.70
2022-10-18T20:55:51.379Z,23.33
2022-10-18T20:58:26.106Z,21.75
2022-10-18T21:01:00.989Z,16.67
2022-10-18T21:03:36.059Z,16.35
2022-10-18T21:06:28.618Z,16.60
2022-10-18T21:09:02.671Z,13.68
2022-10-18T21:11:37.396Z,17.27
2022-10-18T21:14:10.154Z,22.35
2022-10-18T21:16:41.258Z,20.05
2022-10-18T21:19:15.162Z,19.17
2022-10-18T21:21:50.932Z,21.05
2022-10-18T21:24:24.094Z,14.45
2022-10-18T21:26:55.035Z,15.82
2022-10-18T21:29:27.511Z,15.35
2022-10-18T21:32:01.094Z,16.05
2022-10-18T21:34:32.382Z,20.45
2022-10-18T21:37:05.752Z,19.88
2022-10-18T21:39:36.928Z,16.13
2022-10-18T21:42:08.973Z,21.75
2022-10-18T21:44:40.349Z,14.63
2022-10-18T21:47:11.693Z,19.70
2022-10-18T21:49:42.914Z,19.65
2022-10-18T21:52:18.707Z,16.52
2022-10-18T21:54:56.604Z,18.63
2022-10-18T21:57:27.559Z,18.45
2022-10-18T21:59:58.622Z,17.80
2022-10-18T22:02:29.546Z,14.98
2022-10-18T22:05:07.021Z,17.70
2022-10-18T22:07:43.001Z,19.63
2022-10-18T22:10:14.795Z,17.98
2022-10-18T22:12:45.586Z,18.30
2022-10-18T22:15:16.716Z,17.27
2022-10-18T22:17:47.590Z,14.05
2022-10-18T22:20:22.453Z,22.38
2022-10-18T22:22:59.594Z,19.60
2022-10-18T22:25:30.889Z,17.55
2022-10-18T22:28:01.615Z,15.65
2022-10-18T22:30:33.888Z,15.18
2022-10-18T22:33:04.645Z,13.60
2022-10-18T22:35:36.150Z,20.77
2022-10-18T22:38:09.638Z,18.52
2022-10-18T22:40:40.815Z,20.33
2022-10-18T22:43:11.698Z,9.68
2022-10-18T22:45:43.203Z,14.38
2022-10-18T22:48:26.314Z,13.93
2022-10-18T22:50:59.197Z,12.25
2022-10-18T22:53:33.977Z,10.93
2022-10-18T22:56:07.310Z,12.20
2022-10-18T22:58:38.765Z,15.38
2022-10-18T23:01:12.378Z,19.02
2022-10-18T23:03:44.246Z,10.82
2022-10-18T23:06:23.337Z,13.68
2022-10-18T23:08:58.716Z,13.55
2022-10-18T23:11:32.096Z,14.00
2022-10-18T23:14:04.218Z,15.18
2022-10-18T23:16:35.937Z,12.88
2022-10-18T23:19:07.952Z,12.65
2022-10-18T23:21:39.905Z,18.85
2022-10-18T23:24:14.118Z,14.32
2022-10-18T23:26:46.037Z,15.98
2022-10-18T23:29:17.787Z,18.20
2022-10-18T23:31:49.778Z,14.48
2022-10-18T23:34:21.530Z,13.05
2022-10-18T23:36:53.558Z,17.10
2022-10-18T23:39:27.842Z,13.57
2022-10-18T23:41:59.846Z,11.38
2022-10-18T23:44:31.507Z,12.52
2022-10-18T23:47:03.487Z,15.23
2022-10-18T23:49:35.456Z,13.35
2022-10-18T23:52:07.897Z,16.75
2022-10-18T23:54:42.225Z,17.42
2022-10-18T23:57:14.246Z,11.82
2022-10-18T23:59:45.919Z,11.68
